sensor_id;sensor_type;location;lat;lon;timestamp;pressure;altitude;pressure_sealevel;temperature;humidity
72855;BME280;60991;51.278;22.550;2023-05-21T00:00:50;99920.28;;;17.20;52.82
72855;BME280;60991;51.278;22.550;2023-05-21T00:02:21;99918.66;;;17.19;52.83
72855;BME280;60991;51.278;22.550;2023-05-21T00:03:51;99920.53;;;17.18;52.94
72855;BME280;60991;51.278;22.550;2023-05-21T00:05:21;99920.53;;;17.18;52.86
72855;BME280;60991;51.278;22.550;2023-05-21T00:06:51;99918.91;;;17.17;52.70
72855;BME280;60991;51.278;22.550;2023-05-21T00:08:22;99915.69;;;17.15;52.96
72855;BME280;60991;51.278;22.550;2023-05-21T00:09:52;99918.13;;;17.17;52.87
72855;BME280;60991;51.278;22.550;2023-05-21T00:11:22;99924.00;;;17.14;53.18
72855;BME280;60991;51.278;22.550;2023-05-21T00:12:53;99921.31;;;17.14;52.94
72855;BME280;60991;51.278;22.550;2023-05-21T00:14:23;99919.44;;;17.14;52.72
72855;BME280;60991;51.278;22.550;2023-05-21T00:15:53;99915.16;;;17.13;52.87
72855;BME280;60991;51.278;22.550;2023-05-21T00:17:23;99914.34;;;17.13;52.75
72855;BME280;60991;51.278;22.550;2023-05-21T00:18:53;99913.53;;;17.12;52.99
72855;BME280;60991;51.278;22.550;2023-05-21T00:20:24;99917.56;;;17.10;52.84
72855;BME280;60991;51.278;22.550;2023-05-21T00:21:54;99917.56;;;17.10;53.10
72855;BME280;60991;51.278;22.550;2023-05-21T00:23:24;99917.03;;;17.08;52.86
72855;BME280;60991;51.278;22.550;2023-05-21T00:24:55;99920.81;;;17.07;53.02
72855;BME280;60991;51.278;22.550;2023-05-21T00:26:25;99922.38;;;17.08;52.88
72855;BME280;60991;51.278;22.550;2023-05-21T00:27:55;99913.53;;;17.07;52.98
72855;BME280;60991;51.278;22.550;2023-05-21T00:29:25;99917.56;;;17.05;53.03
72855;BME280;60991;51.278;22.550;2023-05-21T00:30:55;99912.22;;;17.05;52.95
72855;BME280;60991;51.278;22.550;2023-05-21T00:32:26;99912.47;;;17.03;52.99
72855;BME280;60991;51.278;22.550;2023-05-21T00:33:56;99922.41;;;17.03;53.02
72855;BME280;60991;51.278;22.550;2023-05-21T00:35:27;99913.53;;;16.97;53.08
72855;BME280;60991;51.278;22.550;2023-05-21T00:36:57;99918.09;;;16.96;53.14
72855;BME280;60991;51.278;22.550;2023-05-21T00:38:27;99913.53;;;16.97;53.17
72855;BME280;60991;51.278;22.550;2023-05-21T00:39:57;99920.50;;;16.98;53.11
72855;BME280;60991;51.278;22.550;2023-05-21T00:41:28;99916.22;;;16.97;53.26
72855;BME280;60991;51.278;22.550;2023-05-21T00:42:58;99922.91;;;16.94;53.00
72855;BME280;60991;51.278;22.550;2023-05-21T00:44:28;99915.13;;;16.93;52.98
72855;BME280;60991;51.278;22.550;2023-05-21T00:45:58;99916.75;;;16.94;53.03
72855;BME280;60991;51.278;22.550;2023-05-21T00:47:29;99920.50;;;16.93;52.91
72855;BME280;60991;51.278;22.550;2023-05-21T00:48:59;99925.84;;;16.93;53.11
72855;BME280;60991;51.278;22.550;2023-05-21T00:50:29;99921.56;;;16.92;52.95
72855;BME280;60991;51.278;22.550;2023-05-21T00:52:00;99923.69;;;16.90;53.02
72855;BME280;60991;51.278;22.550;2023-05-21T00:53:30;99922.09;;;16.89;53.04
72855;BME280;60991;51.278;22.550;2023-05-21T00:55:00;99920.50;;;16.88;53.05
72855;BME280;60991;51.278;22.550;2023-05-21T00:56:31;99914.03;;;16.89;53.09
72855;BME280;60991;51.278;22.550;2023-05-21T00:58:01;99907.38;;;16.86;53.01
72855;BME280;60991;51.278;22.550;2023-05-21T00:59:32;99911.38;;;16.84;53.03
72855;BME280;60991;51.278;22.550;2023-05-21T01:01:02;99914.88;;;16.84;52.97
72855;BME280;60991;51.278;22.550;2023-05-21T01:02:33;99917.25;;;16.81;53.10
72855;BME280;60991;51.278;22.550;2023-05-21T01:04:04;99913.75;;;16.75;53.29
72855;BME280;60991;51.278;22.550;2023-05-21T01:05:34;99920.19;;;16.74;53.18
72855;BME280;60991;51.278;22.550;2023-05-21T01:07:04;99914.81;;;16.74;53.25
72855;BME280;60991;51.278;22.550;2023-05-21T01:08:35;99911.88;;;16.71;53.27
72855;BME280;60991;51.278;22.550;2023-05-21T01:10:08;99909.19;;;16.66;53.45
72855;BME280;60991;51.278;22.550;2023-05-21T01:11:45;99904.59;;;16.61;53.67
72855;BME280;60991;51.278;22.550;2023-05-21T01:13:16;99910.19;;;16.59;53.69
72855;BME280;60991;51.278;22.550;2023-05-21T01:14:47;99913.94;;;16.53;53.72
72855;BME280;60991;51.278;22.550;2023-05-21T01:16:18;99920.66;;;16.51;53.88
72855;BME280;60991;51.278;22.550;2023-05-21T01:17:50;99911.00;;;16.50;54.04
72855;BME280;60991;51.278;22.550;2023-05-21T01:19:21;99911.00;;;16.50;54.04
72855;BME280;60991;51.278;22.550;2023-05-21T01:20:52;99909.34;;;16.44;54.20
72855;BME280;60991;51.278;22.550;2023-05-21T01:22:23;99904.22;;;16.37;54.28
72855;BME280;60991;51.278;22.550;2023-05-21T01:23:54;99905.00;;;16.27;54.61
72855;BME280;60991;51.278;22.550;2023-05-21T01:25:24;99898.84;;;16.27;54.58
72855;BME280;60991;51.278;22.550;2023-05-21T01:26:54;99902.34;;;16.27;54.69
72855;BME280;60991;51.278;22.550;2023-05-21T01:28:24;99903.94;;;16.28;54.67
72855;BME280;60991;51.278;22.550;2023-05-21T01:29:55;99899.06;;;16.20;54.92
72855;BME280;60991;51.278;22.550;2023-05-21T01:31:29;99895.59;;;16.20;54.86
72855;BME280;60991;51.278;22.550;2023-05-21T01:34:46;99894.50;;;16.16;54.73
72855;BME280;60991;51.278;22.550;2023-05-21T01:36:24;99892.63;;;16.16;54.78
72855;BME280;60991;51.278;22.550;2023-05-21T01:38:07;99900.41;;;16.13;55.04
72855;BME280;60991;51.278;22.550;2023-05-21T01:39:43;99896.38;;;16.10;54.95
72855;BME280;60991;51.278;22.550;2023-05-21T01:41:17;99899.03;;;16.10;54.96
72855;BME280;60991;51.278;22.550;2023-05-21T01:42:48;99893.44;;;16.12;55.01
72855;BME280;60991;51.278;22.550;2023-05-21T01:44:19;99896.63;;;16.09;54.95
72855;BME280;60991;51.278;22.550;2023-05-21T01:45:54;99897.66;;;16.03;55.20
72855;BME280;60991;51.278;22.550;2023-05-21T01:47:25;99894.13;;;15.97;55.16
72855;BME280;60991;51.278;22.550;2023-05-21T01:48:57;99891.47;;;15.97;55.28
72855;BME280;60991;51.278;22.550;2023-05-21T01:50:28;99893.34;;;15.97;55.21
72855;BME280;60991;51.278;22.550;2023-05-21T01:51:58;99891.72;;;15.90;55.25
72855;BME280;60991;51.278;22.550;2023-05-21T01:53:29;99894.94;;;15.92;55.32
72855;BME280;60991;51.278;22.550;2023-05-21T01:54:59;99886.34;;;15.90;55.72
72855;BME280;60991;51.278;22.550;2023-05-21T01:56:29;99885.28;;;15.91;55.21
72855;BME280;60991;51.278;22.550;2023-05-21T01:58:00;99883.69;;;15.90;55.13
72855;BME280;60991;51.278;22.550;2023-05-21T01:59:30;99887.69;;;15.88;55.28
72855;BME280;60991;51.278;22.550;2023-05-21T02:01:00;99896.00;;;15.91;55.23
72855;BME280;60991;51.278;22.550;2023-05-21T02:02:30;99883.94;;;15.89;55.30
72855;BME280;60991;51.278;22.550;2023-05-21T02:04:01;99890.91;;;15.90;55.22
72855;BME280;60991;51.278;22.550;2023-05-21T02:05:31;99881.78;;;15.86;55.22
72855;BME280;60991;51.278;22.550;2023-05-21T02:07:01;99885.25;;;15.86;55.20
72855;BME280;60991;51.278;22.550;2023-05-21T02:08:31;99882.59;;;15.86;55.14
72855;BME280;60991;51.278;22.550;2023-05-21T02:10:02;99887.13;;;15.86;55.17
72855;BME280;60991;51.278;22.550;2023-05-21T02:11:33;99882.03;;;15.84;55.35
72855;BME280;60991;51.278;22.550;2023-05-21T02:13:03;99884.19;;;15.87;55.21
72855;BME280;60991;51.278;22.550;2023-05-21T02:14:34;99887.13;;;15.86;55.36
72855;BME280;60991;51.278;22.550;2023-05-21T02:16:04;99881.47;;;15.82;55.41
72855;BME280;60991;51.278;22.550;2023-05-21T02:17:34;99881.75;;;15.81;55.47
72855;BME280;60991;51.278;22.550;2023-05-21T02:19:04;99881.19;;;15.79;55.59
72855;BME280;60991;51.278;22.550;2023-05-21T02:20:35;99881.75;;;15.81;55.40
72855;BME280;60991;51.278;22.550;2023-05-21T02:22:05;99882.81;;;15.80;55.45
72855;BME280;60991;51.278;22.550;2023-05-21T02:23:36;99875.84;;;15.79;55.39
72855;BME280;60991;51.278;22.550;2023-05-21T02:25:07;99875.56;;;15.75;55.48
72855;BME280;60991;51.278;22.550;2023-05-21T02:26:37;99875.03;;;15.73;55.58
72855;BME280;60991;51.278;22.550;2023-05-21T02:28:08;99884.13;;;15.72;55.87
72855;BME280;60991;51.278;22.550;2023-05-21T02:29:38;99883.00;;;15.68;55.81
72855;BME280;60991;51.278;22.550;2023-05-21T02:31:08;99879.78;;;15.66;55.96
72855;BME280;60991;51.278;22.550;2023-05-21T02:32:39;99875.50;;;15.65;55.67
72855;BME280;60991;51.278;22.550;2023-05-21T02:34:10;99887.25;;;15.64;55.90
72855;BME280;60991;51.278;22.550;2023-05-21T02:35:40;99882.47;;;15.66;55.87
72855;BME280;60991;51.278;22.550;2023-05-21T02:37:10;99880.56;;;15.62;56.30
72855;BME280;60991;51.278;22.550;2023-05-21T02:38:40;99874.38;;;15.56;56.05
72855;BME280;60991;51.278;22.550;2023-05-21T02:40:11;99877.88;;;15.56;56.30
72855;BME280;60991;51.278;22.550;2023-05-21T02:41:41;99874.38;;;15.56;56.27
72855;BME280;60991;51.278;22.550;2023-05-21T02:43:11;99868.97;;;15.51;56.29
72855;BME280;60991;51.278;22.550;2023-05-21T02:44:43;99868.97;;;15.51;56.34
72855;BME280;60991;51.278;22.550;2023-05-21T02:46:13;99874.00;;;15.47;56.31
72855;BME280;60991;51.278;22.550;2023-05-21T02:47:43;99871.34;;;15.47;56.52
72855;BME280;60991;51.278;22.550;2023-05-21T02:49:13;99870.78;;;15.45;56.79
72855;BME280;60991;51.278;22.550;2023-05-21T02:50:44;99868.34;;;15.44;56.62
72855;BME280;60991;51.278;22.550;2023-05-21T02:52:14;99872.09;;;15.43;56.55
72855;BME280;60991;51.278;22.550;2023-05-21T02:53:44;99873.97;;;15.42;56.77
72855;BME280;60991;51.278;22.550;2023-05-21T02:55:14;99865.94;;;15.42;56.48
72855;BME280;60991;51.278;22.550;2023-05-21T02:56:44;99860.03;;;15.40;56.60
72855;BME280;60991;51.278;22.550;2023-05-21T02:58:15;99868.31;;;15.34;57.15
72855;BME280;60991;51.278;22.550;2023-05-21T02:59:45;99863.22;;;15.32;56.90
72855;BME280;60991;51.278;22.550;2023-05-21T03:01:15;99872.28;;;15.31;57.18
72855;BME280;60991;51.278;22.550;2023-05-21T03:02:45;99863.72;;;15.29;57.28
72855;BME280;60991;51.278;22.550;2023-05-21T03:04:15;99865.88;;;15.32;57.34
72855;BME280;60991;51.278;22.550;2023-05-21T03:05:46;99864.72;;;15.23;57.78
72855;BME280;60991;51.278;22.550;2023-05-21T03:07:16;99870.06;;;15.23;57.38
72855;BME280;60991;51.278;22.550;2023-05-21T03:08:46;99863.66;;;15.24;57.36
72855;BME280;60991;51.278;22.550;2023-05-21T03:10:16;99867.41;;;15.23;57.54
72855;BME280;60991;51.278;22.550;2023-05-21T03:11:48;99866.91;;;15.26;57.40
72855;BME280;60991;51.278;22.550;2023-05-21T03:13:18;99871.47;;;15.31;57.26
72855;BME280;60991;51.278;22.550;2023-05-21T03:14:48;99861.59;;;15.31;57.10
72855;BME280;60991;51.278;22.550;2023-05-21T03:16:18;99866.69;;;15.33;57.38
72855;BME280;60991;51.278;22.550;2023-05-21T03:17:49;99858.91;;;15.31;57.16
72855;BME280;60991;51.278;22.550;2023-05-21T03:19:19;99866.38;;;15.29;57.34
72855;BME280;60991;51.278;22.550;2023-05-21T03:20:50;99869.38;;;15.33;57.39
72855;BME280;60991;51.278;22.550;2023-05-21T03:22:20;99860.53;;;15.32;57.29
72855;BME280;60991;51.278;22.550;2023-05-21T03:23:50;99860.28;;;15.34;57.23
72855;BME280;60991;51.278;22.550;2023-05-21T03:25:20;99861.63;;;15.36;57.09
72855;BME280;60991;51.278;22.550;2023-05-21T03:26:50;99865.88;;;15.32;57.27
72855;BME280;60991;51.278;22.550;2023-05-21T03:28:21;99864.00;;;15.33;57.33
72855;BME280;60991;51.278;22.550;2023-05-21T03:29:51;99869.91;;;15.35;57.18
72855;BME280;60991;51.278;22.550;2023-05-21T03:31:22;99863.50;;;15.36;57.13
72855;BME280;60991;51.278;22.550;2023-05-21T03:32:52;99858.97;;;15.36;57.24
72855;BME280;60991;51.278;22.550;2023-05-21T03:34:23;99868.84;;;15.36;57.62
72855;BME280;60991;51.278;22.550;2023-05-21T03:35:53;99866.19;;;15.36;57.49
72855;BME280;60991;51.278;22.550;2023-05-21T03:37:23;99869.41;;;15.38;57.46
72855;BME280;60991;51.278;22.550;2023-05-21T03:38:53;99872.34;;;15.41;57.41
72855;BME280;60991;51.278;22.550;2023-05-21T03:40:23;99863.53;;;15.41;57.49
72855;BME280;60991;51.278;22.550;2023-05-21T03:41:54;99867.00;;;15.41;57.53
72855;BME280;60991;51.278;22.550;2023-05-21T03:43:24;99874.78;;;15.43;57.39
72855;BME280;60991;51.278;22.550;2023-05-21T03:44:54;99865.69;;;15.44;57.46
72855;BME280;60991;51.278;22.550;2023-05-21T03:46:24;99873.19;;;15.47;57.38
72855;BME280;60991;51.278;22.550;2023-05-21T03:47:54;99867.03;;;15.46;57.54
72855;BME280;60991;51.278;22.550;2023-05-21T03:49:25;99871.09;;;15.49;57.38
72855;BME280;60991;51.278;22.550;2023-05-21T03:50:55;99868.16;;;15.50;57.37
72855;BME280;60991;51.278;22.550;2023-05-21T03:52:25;99869.50;;;15.53;57.36
72855;BME280;60991;51.278;22.550;2023-05-21T03:53:58;99874.31;;;15.51;57.35
72855;BME280;60991;51.278;22.550;2023-05-21T03:55:28;99874.59;;;15.54;57.10
72855;BME280;60991;51.278;22.550;2023-05-21T03:56:59;99877.06;;;15.56;57.32
72855;BME280;60991;51.278;22.550;2023-05-21T03:58:29;99878.41;;;15.58;57.20
72855;BME280;60991;51.278;22.550;2023-05-21T03:59:59;99874.94;;;15.63;57.27
72855;BME280;60991;51.278;22.550;2023-05-21T04:01:30;99879.22;;;15.64;57.01
72855;BME280;60991;51.278;22.550;2023-05-21T04:03:00;99877.06;;;15.56;57.40
72855;BME280;60991;51.278;22.550;2023-05-21T04:04:30;99880.28;;;15.58;57.33
72855;BME280;60991;51.278;22.550;2023-05-21T04:06:01;99872.78;;;15.60;57.20
72855;BME280;60991;51.278;22.550;2023-05-21T04:07:31;99873.88;;;15.64;57.15
72855;BME280;60991;51.278;22.550;2023-05-21T04:09:02;99871.19;;;15.64;57.12
72855;BME280;60991;51.278;22.550;2023-05-21T04:10:32;99876.50;;;15.59;57.33
72855;BME280;60991;51.278;22.550;2023-05-21T04:12:03;99878.13;;;15.60;57.48
72855;BME280;60991;51.278;22.550;2023-05-21T04:13:33;99877.38;;;15.65;57.30
72855;BME280;60991;51.278;22.550;2023-05-21T04:15:04;99882.47;;;15.66;57.23
72855;BME280;60991;51.278;22.550;2023-05-21T04:16:34;99876.31;;;15.66;57.41
72855;BME280;60991;51.278;22.550;2023-05-21T04:18:04;99882.22;;;15.68;57.22
72855;BME280;60991;51.278;22.550;2023-05-21T04:19:35;99879.53;;;15.68;57.48
72855;BME280;60991;51.278;22.550;2023-05-21T04:21:05;99875.50;;;15.65;57.37
72855;BME280;60991;51.278;22.550;2023-05-21T04:22:35;99877.41;;;15.70;57.67
72855;BME280;60991;51.278;22.550;2023-05-21T04:24:05;99884.91;;;15.73;57.46
72855;BME280;60991;51.278;22.550;2023-05-21T04:25:36;99869.94;;;15.72;57.40
72855;BME280;60991;51.278;22.550;2023-05-21T04:27:06;99867.25;;;15.72;57.52
72855;BME280;60991;51.278;22.550;2023-05-21T04:28:36;99875.53;;;15.70;57.50
72855;BME280;60991;51.278;22.550;2023-05-21T04:30:07;99876.03;;;15.67;57.73
72855;BME280;60991;51.278;22.550;2023-05-21T04:31:37;99874.72;;;15.70;57.48
72855;BME280;60991;51.278;22.550;2023-05-21T04:33:07;99868.84;;;15.73;57.57
72855;BME280;60991;51.278;22.550;2023-05-21T04:34:37;99872.34;;;15.73;57.45
72855;BME280;60991;51.278;22.550;2023-05-21T04:36:07;99869.38;;;15.70;57.49
72855;BME280;60991;51.278;22.550;2023-05-21T04:37:38;99868.31;;;15.71;57.54
72855;BME280;60991;51.278;22.550;2023-05-21T04:39:08;99871.03;;;15.76;57.54
72855;BME280;60991;51.278;22.550;2023-05-21T04:40:38;99871.03;;;15.76;57.63
72855;BME280;60991;51.278;22.550;2023-05-21T04:42:08;99871.78;;;15.71;57.68
72855;BME280;60991;51.278;22.550;2023-05-21T04:43:38;99871.78;;;15.71;57.81
72855;BME280;60991;51.278;22.550;2023-05-21T04:45:09;99876.09;;;15.77;57.85
72855;BME280;60991;51.278;22.550;2023-05-21T04:46:39;99872.13;;;15.85;57.45
72855;BME280;60991;51.278;22.550;2023-05-21T04:48:09;99868.69;;;15.89;57.34
72855;BME280;60991;51.278;22.550;2023-05-21T04:49:40;99874.03;;;15.89;57.21
72855;BME280;60991;51.278;22.550;2023-05-21T04:51:10;99867.63;;;15.90;57.29
72855;BME280;60991;51.278;22.550;2023-05-21T04:52:40;99873.00;;;15.96;57.32
72855;BME280;60991;51.278;22.550;2023-05-21T04:54:11;99870.59;;;15.94;57.37
72855;BME280;60991;51.278;22.550;2023-05-21T04:55:41;99868.97;;;15.98;57.56
72855;BME280;60991;51.278;22.550;2023-05-21T04:57:11;99869.53;;;16.00;57.47
72855;BME280;60991;51.278;22.550;2023-05-21T04:58:42;99863.09;;;16.01;57.61
72855;BME280;60991;51.278;22.550;2023-05-21T05:00:12;99871.13;;;16.01;57.65
72855;BME280;60991;51.278;22.550;2023-05-21T05:01:42;99870.63;;;16.04;57.58
72855;BME280;60991;51.278;22.550;2023-05-21T05:03:12;99871.47;;;16.10;57.59
72855;BME280;60991;51.278;22.550;2023-05-21T05:04:43;99865.28;;;16.14;57.60
72855;BME280;60991;51.278;22.550;2023-05-21T05:06:13;99864.25;;;16.20;57.42
72855;BME280;60991;51.278;22.550;2023-05-21T05:07:43;99866.38;;;16.18;57.31
72855;BME280;60991;51.278;22.550;2023-05-21T05:09:13;99868.25;;;16.18;57.38
72855;BME280;60991;51.278;22.550;2023-05-21T05:10:44;99868.81;;;16.20;57.34
72855;BME280;60991;51.278;22.550;2023-05-21T05:12:14;99869.38;;;16.27;57.02
72855;BME280;60991;51.278;22.550;2023-05-21T05:13:44;99866.19;;;16.30;57.27
72855;BME280;60991;51.278;22.550;2023-05-21T05:15:14;99864.56;;;16.29;57.30
72855;BME280;60991;51.278;22.550;2023-05-21T05:16:44;99866.16;;;16.35;56.85
72855;BME280;60991;51.278;22.550;2023-05-21T05:18:15;99863.22;;;16.37;56.74
72855;BME280;60991;51.278;22.550;2023-05-21T05:19:45;99866.19;;;16.40;56.55
72855;BME280;60991;51.278;22.550;2023-05-21T05:21:15;99860.59;;;16.47;56.21
72855;BME280;60991;51.278;22.550;2023-05-21T05:22:45;99859.00;;;16.51;55.98
72855;BME280;60991;51.278;22.550;2023-05-21T05:24:15;99867.56;;;16.53;56.08
72855;BME280;60991;51.278;22.550;2023-05-21T05:25:46;99864.09;;;16.57;55.87
72855;BME280;60991;51.278;22.550;2023-05-21T05:27:16;99869.72;;;16.61;56.13
72855;BME280;60991;51.278;22.550;2023-05-21T05:28:46;99869.25;;;16.64;55.46
72855;BME280;60991;51.278;22.550;2023-05-21T05:30:16;99868.97;;;16.66;55.91
72855;BME280;60991;51.278;22.550;2023-05-21T05:31:47;99867.63;;;16.63;56.03
72855;BME280;60991;51.278;22.550;2023-05-21T05:33:17;99863.31;;;16.62;56.11
72855;BME280;60991;51.278;22.550;2023-05-21T05:34:47;99867.63;;;16.63;56.15
72855;BME280;60991;51.278;22.550;2023-05-21T05:36:17;99868.44;;;16.69;55.86
72855;BME280;60991;51.278;22.550;2023-05-21T05:37:47;99863.34;;;16.72;55.92
72855;BME280;60991;51.278;22.550;2023-05-21T05:39:17;99868.97;;;16.76;55.96
72855;BME280;60991;51.278;22.550;2023-05-21T05:40:48;99864.94;;;16.73;56.05
72855;BME280;60991;51.278;22.550;2023-05-21T05:42:18;99864.44;;;16.76;55.87
72855;BME280;60991;51.278;22.550;2023-05-21T05:43:48;99860.13;;;16.70;56.18
72855;BME280;60991;51.278;22.550;2023-05-21T05:45:19;99868.97;;;16.76;55.87
72855;BME280;60991;51.278;22.550;2023-05-21T05:46:49;99868.19;;;16.80;55.65
72855;BME280;60991;51.278;22.550;2023-05-21T05:48:19;99866.31;;;16.81;55.73
72855;BME280;60991;51.278;22.550;2023-05-21T05:49:49;99864.16;;;16.78;55.85
72855;BME280;60991;51.278;22.550;2023-05-21T05:51:19;99867.94;;;16.82;55.69
72855;BME280;60991;51.278;22.550;2023-05-21T05:52:50;99864.47;;;16.86;55.68
72855;BME280;60991;51.278;22.550;2023-05-21T05:54:20;99868.19;;;16.90;55.76
72855;BME280;60991;51.278;22.550;2023-05-21T05:55:50;99866.84;;;16.93;55.51
72855;BME280;60991;51.278;22.550;2023-05-21T05:57:20;99873.28;;;16.92;55.76
72855;BME280;60991;51.278;22.550;2023-05-21T05:58:50;99871.44;;;16.98;55.86
72855;BME280;60991;51.278;22.550;2023-05-21T06:00:21;99876.00;;;17.02;55.53
72855;BME280;60991;51.278;22.550;2023-05-21T06:01:51;99870.09;;;17.00;55.87
72855;BME280;60991;51.278;22.550;2023-05-21T06:03:21;99870.91;;;17.06;55.79
72855;BME280;60991;51.278;22.550;2023-05-21T06:04:51;99864.72;;;17.10;55.73
72855;BME280;60991;51.278;22.550;2023-05-21T06:06:22;99868.75;;;17.13;55.70
72855;BME280;60991;51.278;22.550;2023-05-21T06:07:53;99869.00;;;17.11;55.60
72855;BME280;60991;51.278;22.550;2023-05-21T06:09:23;99864.72;;;17.15;55.69
72855;BME280;60991;51.278;22.550;2023-05-21T06:10:53;99857.75;;;17.19;55.49
72855;BME280;60991;51.278;22.550;2023-05-21T06:12:24;99861.78;;;17.17;55.88
72855;BME280;60991;51.278;22.550;2023-05-21T06:13:54;99866.34;;;17.16;56.01
72855;BME280;60991;51.278;22.550;2023-05-21T06:15:25;99861.25;;;17.20;55.95
72855;BME280;60991;51.278;22.550;2023-05-21T06:16:55;99863.66;;;17.16;55.45
72855;BME280;60991;51.278;22.550;2023-05-21T06:18:25;99861.50;;;17.23;55.07
72855;BME280;60991;51.278;22.550;2023-05-21T06:19:55;99859.91;;;17.17;55.67
72855;BME280;60991;51.278;22.550;2023-05-21T06:21:26;99858.81;;;17.13;55.63
72855;BME280;60991;51.278;22.550;2023-05-21T06:22:56;99860.16;;;17.21;55.50
72855;BME280;60991;51.278;22.550;2023-05-21T06:24:26;99868.50;;;17.24;55.63
72855;BME280;60991;51.278;22.550;2023-05-21T06:25:56;99859.09;;;17.22;55.81
72855;BME280;60991;51.278;22.550;2023-05-21T06:27:27;99859.06;;;17.27;56.04
72855;BME280;60991;51.278;22.550;2023-05-21T06:28:57;99866.63;;;17.25;56.30
72855;BME280;60991;51.278;22.550;2023-05-21T06:30:27;99865.25;;;17.33;56.48
72855;BME280;60991;51.278;22.550;2023-05-21T06:31:57;99859.63;;;17.34;56.64
72855;BME280;60991;51.278;22.550;2023-05-21T06:33:28;99853.72;;;17.32;56.65
72855;BME280;60991;51.278;22.550;2023-05-21T06:34:58;99851.03;;;17.37;56.39
72855;BME280;60991;51.278;22.550;2023-05-21T06:36:28;99851.84;;;17.43;56.69
72855;BME280;60991;51.278;22.550;2023-05-21T06:37:58;99861.19;;;17.50;56.65
72855;BME280;60991;51.278;22.550;2023-05-21T06:39:28;99857.72;;;17.55;56.33
72855;BME280;60991;51.278;22.550;2023-05-21T06:40:59;99857.16;;;17.58;56.77
72855;BME280;60991;51.278;22.550;2023-05-21T06:42:29;99854.50;;;17.58;56.34
72855;BME280;60991;51.278;22.550;2023-05-21T06:43:59;99860.41;;;17.65;56.81
72855;BME280;60991;51.278;22.550;2023-05-21T06:45:30;99859.59;;;17.75;56.93
72855;BME280;60991;51.278;22.550;2023-05-21T06:47:00;99858.50;;;17.76;56.82
72855;BME280;60991;51.278;22.550;2023-05-21T06:48:30;99848.03;;;17.79;56.39
72855;BME280;60991;51.278;22.550;2023-05-21T06:50:00;99850.97;;;17.78;55.42
72855;BME280;60991;51.278;22.550;2023-05-21T06:51:31;99851.22;;;17.81;55.97
72855;BME280;60991;51.278;22.550;2023-05-21T06:53:01;99846.91;;;17.85;55.95
72855;BME280;60991;51.278;22.550;2023-05-21T06:54:31;99852.28;;;17.90;55.64
72855;BME280;60991;51.278;22.550;2023-05-21T06:56:01;99851.19;;;17.91;56.19
72855;BME280;60991;51.278;22.550;2023-05-21T06:57:32;99850.94;;;17.93;56.56
72855;BME280;60991;51.278;22.550;2023-05-21T06:59:02;99848.22;;;17.98;56.32
72855;BME280;60991;51.278;22.550;2023-05-21T07:00:32;99852.75;;;18.08;56.56
72855;BME280;60991;51.278;22.550;2023-05-21T07:02:02;99846.28;;;18.14;56.32
72855;BME280;60991;51.278;22.550;2023-05-21T07:03:32;99846.28;;;18.14;56.18
72855;BME280;60991;51.278;22.550;2023-05-21T07:05:03;99847.63;;;18.16;56.07
72855;BME280;60991;51.278;22.550;2023-05-21T07:06:33;99848.69;;;18.15;56.32
72855;BME280;60991;51.278;22.550;2023-05-21T07:08:03;99849.22;;;18.17;56.51
72855;BME280;60991;51.278;22.550;2023-05-21T07:09:33;99856.97;;;18.24;56.50
72855;BME280;60991;51.278;22.550;2023-05-21T07:11:04;99852.38;;;18.34;56.39
72855;BME280;60991;51.278;22.550;2023-05-21T07:12:34;99854.19;;;18.39;56.27
72855;BME280;60991;51.278;22.550;2023-05-21T07:14:04;99856.63;;;18.41;56.39
72855;BME280;60991;51.278;22.550;2023-05-21T07:15:34;99852.84;;;18.42;56.33
72855;BME280;60991;51.278;22.550;2023-05-21T07:17:05;99845.31;;;18.44;56.58
72855;BME280;60991;51.278;22.550;2023-05-21T07:18:35;99857.94;;;18.48;56.17
72855;BME280;60991;51.278;22.550;2023-05-21T07:20:05;99852.75;;;18.57;55.83
72855;BME280;60991;51.278;22.550;2023-05-21T07:21:36;99860.00;;;18.56;55.62
72855;BME280;60991;51.278;22.550;2023-05-21T07:23:06;99858.69;;;18.59;55.98
72855;BME280;60991;51.278;22.550;2023-05-21T07:24:37;99861.34;;;18.64;55.96
72855;BME280;60991;51.278;22.550;2023-05-21T07:26:09;99860.00;;;18.66;55.87
72855;BME280;60991;51.278;22.550;2023-05-21T07:27:40;99857.81;;;18.74;56.44
72855;BME280;60991;51.278;22.550;2023-05-21T07:29:10;99849.16;;;18.77;56.02
72855;BME280;60991;51.278;22.550;2023-05-21T07:30:40;99852.91;;;18.81;55.41
72855;BME280;60991;51.278;22.550;2023-05-21T07:32:11;99855.56;;;18.86;55.30
72855;BME280;60991;51.278;22.550;2023-05-21T07:33:41;99850.19;;;18.86;55.34
72855;BME280;60991;51.278;22.550;2023-05-21T07:35:11;99853.41;;;18.88;55.50
72855;BME280;60991;51.278;22.550;2023-05-21T07:36:41;99844.19;;;18.94;55.13
72855;BME280;60991;51.278;22.550;2023-05-21T07:38:11;99852.50;;;18.97;54.96
72855;BME280;60991;51.278;22.550;2023-05-21T07:39:42;99843.88;;;19.00;54.89
72855;BME280;60991;51.278;22.550;2023-05-21T07:41:12;99842.50;;;19.03;55.01
72855;BME280;60991;51.278;22.550;2023-05-21T07:42:42;99845.97;;;19.09;55.23
72855;BME280;60991;51.278;22.550;2023-05-21T07:44:12;99847.81;;;19.13;54.69
72855;BME280;60991;51.278;22.550;2023-05-21T07:45:43;99845.91;;;19.14;53.85
72855;BME280;60991;51.278;22.550;2023-05-21T07:47:13;99839.69;;;19.18;53.34
72855;BME280;60991;51.278;22.550;2023-05-21T07:48:43;99841.22;;;19.29;53.42
72855;BME280;60991;51.278;22.550;2023-05-21T07:50:13;99846.81;;;19.33;53.56
72855;BME280;60991;51.278;22.550;2023-05-21T07:51:43;99844.66;;;19.35;53.58
72855;BME280;60991;51.278;22.550;2023-05-21T07:53:14;99846.25;;;19.36;53.63
72855;BME280;60991;51.278;22.550;2023-05-21T07:54:44;99842.47;;;19.37;53.44